createdAt,value
2018-03-25T00:00:42.567Z,0.86
2018-03-25T00:01:27.665Z,0.87
2018-03-25T00:02:27.937Z,0.86
2018-03-25T00:03:27.703Z,0.88
2018-03-25T00:04:27.703Z,0.79
2018-03-25T00:05:27.718Z,0.86
2018-03-25T00:06:27.991Z,0.93
2018-03-25T00:07:42.662Z,0.87
2018-03-25T00:08:28.018Z,0.91
2018-03-25T00:09:27.791Z,1
2018-03-25T00:10:28.044Z,0.97
2018-03-25T00:11:28.059Z,0.98
2018-03-25T00:12:27.813Z,0.98
2018-03-25T00:13:27.879Z,0.94
2018-03-25T00:14:27.902Z,0.97
2018-03-25T00:15:28.118Z,0.79
2018-03-25T00:16:28.139Z,0.91
2018-03-25T00:17:28.186Z,0.86
2018-03-25T00:18:27.911Z,0.97
2018-03-25T00:19:28.169Z,0.86
2018-03-25T00:20:28.182Z,0.87
2018-03-25T00:21:28.205Z,0.88
2018-03-25T00:22:28.211Z,1
2018-03-25T00:23:28.227Z,1.02
2018-03-25T00:24:28.007Z,0.97
2018-03-25T00:25:28.255Z,0.93
2018-03-25T00:26:28.008Z,1.05
2018-03-25T00:27:28.284Z,0.98
2018-03-25T00:28:28.034Z,0.83
2018-03-25T00:29:28.047Z,0.87
2018-03-25T00:30:28.324Z,0.78
2018-03-25T00:31:28.347Z,0.79
2018-03-25T00:33:28.103Z,0.7
2018-03-25T00:34:28.380Z,0.68
2018-03-25T00:35:28.390Z,0.68
2018-03-25T00:36:28.409Z,0.69
2018-03-25T00:37:28.160Z,0.62
2018-03-25T00:38:28.437Z,0.68
2018-03-25T00:39:43.104Z,0.62
2018-03-25T00:40:28.200Z,0.69
2018-03-25T00:41:28.473Z,0.65
2018-03-25T00:42:28.312Z,0.62
2018-03-25T00:43:28.242Z,0.61
2018-03-25T00:44:28.254Z,0.53
2018-03-25T00:45:28.527Z,0.5
2018-03-25T00:46:28.542Z,0.5
2018-03-25T00:47:28.554Z,0.69
2018-03-25T00:48:43.226Z,0.66
2018-03-25T00:49:28.328Z,0.61
2018-03-25T00:50:28.337Z,0.69
2018-03-25T00:51:43.271Z,0.62
2018-03-25T00:52:28.626Z,0.61
2018-03-25T00:53:43.298Z,0.58
2018-03-25T00:54:28.440Z,0.53
2018-03-25T00:55:43.330Z,0.57
2018-03-25T00:56:28.676Z,0.5
2018-03-25T00:57:28.701Z,0.55
2018-03-25T00:58:28.446Z,0.55
2018-03-25T00:59:28.792Z,0.5
2018-03-25T01:00:28.733Z,0.72
2018-03-25T01:01:28.748Z,0.62
2018-03-25T01:02:28.759Z,0.7
2018-03-25T01:03:28.773Z,0.62
2018-03-25T01:04:43.446Z,0.47
2018-03-25T01:05:28.805Z,0.58
2018-03-25T01:06:28.818Z,0.49
2018-03-25T01:07:28.829Z,0.44
2018-03-25T01:08:28.322Z,0.62
2018-03-25T01:09:28.858Z,0.68
2018-03-25T01:10:28.868Z,0.68
2018-03-25T01:11:28.887Z,0.62
2018-03-25T01:12:28.903Z,0.55
2018-03-25T01:13:28.912Z,0.46
2018-03-25T01:14:28.926Z,0.38
2018-03-25T01:15:28.939Z,0.42
2018-03-25T01:16:28.951Z,0.33
2018-03-25T01:17:28.962Z,0.44
2018-03-25T01:18:28.981Z,0.57
2018-03-25T01:19:28.736Z,0.58
2018-03-25T01:20:43.661Z,0.61
2018-03-25T01:21:28.758Z,0.55
2018-03-25T01:22:29.029Z,0.5
2018-03-25T01:23:28.786Z,0.42
2018-03-25T01:24:29.059Z,0.53
2018-03-25T01:25:29.072Z,0.41
2018-03-25T01:26:29.085Z,0.44
2018-03-25T01:27:43.757Z,0.33
2018-03-25T01:28:29.114Z,0.31
2018-03-25T01:29:28.607Z,0.32
2018-03-25T01:30:29.140Z,0.26
2018-03-25T01:31:29.250Z,0.24
2018-03-25T01:33:29.188Z,0.13
2018-03-25T01:34:29.191Z,0.24
2018-03-25T01:35:43.866Z,0.17
2018-03-25T01:36:29.219Z,0.17
2018-03-25T01:37:29.241Z,0.18
2018-03-25T01:38:29.246Z,0.23
2018-03-25T01:39:29.000Z,0.2
2018-03-25T01:40:29.276Z,0.18
2018-03-25T01:41:29.027Z,0.14
2018-03-25T01:42:43.958Z,0.17
2018-03-25T01:43:43.969Z,0.14
2018-03-25T01:44:43.983Z,-0.01
2018-03-25T01:45:29.337Z,0.08
2018-03-25T01:46:29.195Z,-0.03
2018-03-25T01:47:29.368Z,0.03
2018-03-25T01:48:29.386Z,0.11
2018-03-25T01:49:29.397Z,0.11
2018-03-25T01:51:29.427Z,-0.03
2018-03-25T01:52:29.437Z,0.11
2018-03-25T01:53:29.449Z,0.04
2018-03-25T01:54:29.206Z,0.07
2018-03-25T01:55:29.469Z,0.02
2018-03-25T01:56:29.485Z,0.11
2018-03-25T01:57:28.980Z,0.13
2018-03-25T01:58:29.511Z,0.03
2018-03-25T01:59:29.270Z,-0.03
2018-03-25T02:00:29.539Z,-0.07
2018-03-25T02:02:29.569Z,-0.03
2018-03-25T02:03:29.579Z,-0.08
2018-03-25T02:04:29.333Z,-0.11
2018-03-25T02:05:29.604Z,-0.14
2018-03-25T02:06:29.615Z,-0.15
2018-03-25T02:08:29.385Z,-0.07
2018-03-25T02:09:29.669Z,-0.04
2018-03-25T02:10:29.679Z,-0.05
2018-03-25T02:12:29.698Z,-0.01
2018-03-25T02:13:29.450Z,0.14
2018-03-25T02:14:29.205Z,0.07
2018-03-25T02:15:29.477Z,0.04
2018-03-25T02:16:29.489Z,0.07
2018-03-25T02:17:44.420Z,0.02
2018-03-25T02:18:29.523Z,0.07
2018-03-25T02:19:29.535Z,-0.15
2018-03-25T02:20:29.802Z,-0.14
2018-03-25T02:21:29.554Z,-0.16
2018-03-25T02:22:29.573Z,-0.14
2018-03-25T02:23:44.499Z,-0.14
2018-03-25T02:24:29.858Z,-0.1
2018-03-25T02:25:29.611Z,-0.1
2018-03-25T02:26:29.880Z,-0.14
2018-03-25T02:27:29.903Z,-0.15
2018-03-25T02:28:29.907Z,-0.01
2018-03-25T02:29:29.672Z,-0.14
2018-03-25T02:30:44.602Z,-0.14
2018-03-25T02:31:29.808Z,-0.07
2018-03-25T02:32:29.965Z,-0.15
2018-03-25T02:33:29.718Z,-0.18
2018-03-25T02:34:29.729Z,-0.25
2018-03-25T02:35:30.007Z,-0.16
2018-03-25T02:37:30.024Z,-0.22
2018-03-25T02:38:30.036Z,-0.23
2018-03-25T02:39:44.449Z,-0.34
2018-03-25T02:40:30.066Z,-0.33
2018-03-25T02:41:30.083Z,-0.37
2018-03-25T02:42:30.096Z,-0.39
2018-03-25T02:44:30.155Z,-0.31
2018-03-25T02:45:30.135Z,-0.33
2018-03-25T02:46:30.153Z,-0.37
2018-03-25T02:47:29.898Z,-0.31
2018-03-25T02:48:30.178Z,-0.23
2018-03-25T02:49:44.580Z,-0.23
2018-03-25T02:50:30.212Z,-0.18
2018-03-25T02:51:30.221Z,-0.22
2018-03-25T02:52:30.234Z,-0.29
2018-03-25T02:53:30.241Z,-0.33
2018-03-25T02:55:44.919Z,-0.19
2018-03-25T02:56:30.273Z,-0.15
2018-03-25T02:57:30.294Z,-0.11
2018-03-25T02:58:30.304Z,-0.23
2018-03-25T02:59:30.352Z,-0.29
2018-03-25T03:00:44.985Z,-0.4
2018-03-25T03:01:45.013Z,-0.28
2018-03-25T03:02:30.414Z,-0.23
2018-03-25T03:03:45.023Z,-0.28
2018-03-25T03:04:30.394Z,-0.23
2018-03-25T03:05:30.136Z,-0.31
2018-03-25T03:06:29.884Z,-0.4
2018-03-25T03:07:30.417Z,-0.44
2018-03-25T03:08:30.169Z,-0.55
2018-03-25T03:09:30.279Z,-0.51
2018-03-25T03:10:45.112Z,-0.54
2018-03-25T03:12:30.226Z,-0.49
2018-03-25T03:13:30.501Z,-0.6
2018-03-25T03:14:30.509Z,-0.61
2018-03-25T03:15:30.521Z,-0.6
2018-03-25T03:16:30.273Z,-0.58
2018-03-25T03:17:45.202Z,-0.44
2018-03-25T03:18:30.558Z,-0.44
2018-03-25T03:19:30.571Z,-0.4
2018-03-25T03:20:30.596Z,-0.61
2018-03-25T03:21:30.602Z,-0.6
2018-03-25T03:22:30.610Z,-0.54
2018-03-25T03:23:30.621Z,-0.39
2018-03-25T03:24:30.634Z,-0.43
2018-03-25T03:25:30.652Z,-0.44
2018-03-25T03:26:30.662Z,-0.54
2018-03-25T03:28:30.689Z,-0.62
2018-03-25T03:29:30.811Z,-0.65
2018-03-25T03:30:30.725Z,-0.65
2018-03-25T03:31:30.479Z,-0.65
2018-03-25T03:32:30.743Z,-0.61
2018-03-25T03:33:30.764Z,-0.67
2018-03-25T03:34:30.767Z,-0.62
2018-03-25T03:35:30.782Z,-0.65
2018-03-25T03:36:30.801Z,-0.73
2018-03-25T03:37:30.808Z,-0.67
2018-03-25T03:38:30.825Z,-0.69
2018-03-25T03:39:30.569Z,-0.67
2018-03-25T03:40:30.592Z,-0.78
2018-03-25T03:41:30.857Z,-0.69
2018-03-25T03:42:45.529Z,-0.58
2018-03-25T03:43:30.620Z,-0.51
2018-03-25T03:44:30.913Z,-0.57
2018-03-25T03:45:30.906Z,-0.55
2018-03-25T03:46:30.919Z,-0.62
2018-03-25T03:47:30.930Z,-0.58
2018-03-25T03:48:30.946Z,-0.52
2018-03-25T03:49:30.697Z,-0.51
2018-03-25T03:50:30.452Z,-0.57
2018-03-25T03:51:30.987Z,-0.65
2018-03-25T03:52:30.993Z,-0.65
2018-03-25T03:53:31.007Z,-0.65
2018-03-25T03:54:30.766Z,-0.64
2018-03-25T03:55:31.035Z,-0.57
2018-03-25T03:56:31.050Z,-0.65
2018-03-25T03:57:30.800Z,-0.64
2018-03-25T03:58:45.728Z,-0.64
2018-03-25T03:59:31.091Z,-0.62
2018-03-25T04:01:30.852Z,-0.65
2018-03-25T04:02:31.128Z,-0.61
2018-03-25T04:03:31.138Z,-0.57
2018-03-25T04:04:30.890Z,-0.62
2018-03-25T04:05:30.902Z,-0.6
2018-03-25T04:06:31.175Z,-0.61
2018-03-25T04:07:31.185Z,-0.6
2018-03-25T04:08:45.854Z,-0.75
2018-03-25T04:09:30.954Z,-0.75
2018-03-25T04:10:31.225Z,-0.64
2018-03-25T04:11:31.236Z,-0.73
2018-03-25T04:13:31.262Z,-0.62
2018-03-25T04:14:45.936Z,-0.72
2018-03-25T04:15:31.288Z,-0.7
2018-03-25T04:16:30.784Z,-0.82
2018-03-25T04:17:31.316Z,-0.79
2018-03-25T04:18:31.328Z,-0.79
2018-03-25T04:19:45.999Z,-0.79
2018-03-25T04:20:31.357Z,-0.8
2018-03-25T04:21:31.363Z,-0.82
2018-03-25T04:22:31.120Z,-0.8
2018-03-25T04:23:31.389Z,-0.92
2018-03-25T04:24:31.404Z,-0.94
2018-03-25T04:25:45.813Z,-0.92
2018-03-25T04:26:31.431Z,-0.91
2018-03-25T04:27:31.182Z,-0.95
2018-03-25T04:28:31.450Z,-0.91
2018-03-25T04:29:31.463Z,-0.91
2018-03-25T04:30:46.239Z,-0.92
2018-03-25T04:31:31.497Z,-0.95
2018-03-25T04:32:31.503Z,-0.94
2018-03-25T04:33:31.523Z,-0.89
2018-03-25T04:34:31.534Z,-0.83
2018-03-25T04:35:31.282Z,-0.8
2018-03-25T04:36:31.555Z,-0.78
2018-03-25T04:37:46.224Z,-0.79
2018-03-25T04:38:31.324Z,-0.8
2018-03-25T04:39:31.335Z,-0.79
2018-03-25T04:41:31.618Z,-0.65
2018-03-25T04:42:31.631Z,-0.6
2018-03-25T04:43:31.644Z,-0.64
2018-03-25T04:44:31.402Z,-0.6
2018-03-25T04:45:46.332Z,-0.54
2018-03-25T04:46:31.682Z,-0.6
2018-03-25T04:47:31.694Z,-0.58
2018-03-25T04:48:31.708Z,-0.51
2018-03-25T04:49:31.202Z,-0.58
2018-03-25T04:50:31.732Z,-0.55
2018-03-25T04:51:31.746Z,-0.52
2018-03-25T04:52:46.416Z,-0.52
2018-03-25T04:53:31.511Z,-0.51
2018-03-25T04:54:31.524Z,-0.58
2018-03-25T04:55:31.800Z,-0.64
2018-03-25T04:56:31.811Z,-0.61
2018-03-25T04:57:31.834Z,-0.7
2018-03-25T04:58:31.833Z,-0.67
2018-03-25T04:59:31.586Z,-0.67
2018-03-25T05:00:31.857Z,-0.61
2018-03-25T05:01:31.873Z,-0.73
2018-03-25T05:02:31.624Z,-0.72
2018-03-25T05:03:31.903Z,-0.7
2018-03-25T05:04:31.914Z,-0.73
2018-03-25T05:05:31.922Z,-0.65
2018-03-25T05:06:31.945Z,-0.61
2018-03-25T05:08:31.701Z,-0.64
2018-03-25T05:09:31.979Z,-0.52
2018-03-25T05:10:31.726Z,-0.55
2018-03-25T05:11:46.398Z,-0.57
2018-03-25T05:12:32.013Z,-0.62
2018-03-25T05:13:32.027Z,-0.58
2018-03-25T05:14:32.034Z,-0.58
2018-03-25T05:15:31.795Z,-0.47
2018-03-25T05:16:32.072Z,-0.47
2018-03-25T05:17:46.472Z,-0.52
2018-03-25T05:18:31.828Z,-0.47
2018-03-25T05:19:32.101Z,-0.37
2018-03-25T05:20:32.115Z,-0.37
2018-03-25T05:21:31.867Z,-0.34
2018-03-25T05:22:31.880Z,-0.28
2018-03-25T05:23:32.157Z,-0.25
2018-03-25T05:24:31.918Z,-0.11
2018-03-25T05:25:32.176Z,-0.07
2018-03-25T05:26:32.192Z,0
2018-03-25T05:27:32.202Z,0.11
2018-03-25T05:28:31.958Z,-0.01
2018-03-25T05:29:31.971Z,0.13
2018-03-25T05:30:32.243Z,0.18
2018-03-25T05:31:32.262Z,0.18
2018-03-25T05:32:32.277Z,0.21
2018-03-25T05:34:32.299Z,0.17
2018-03-25T05:35:32.311Z,0.29
2018-03-25T05:36:32.323Z,0.33
2018-03-25T05:38:32.351Z,0.47
2018-03-25T05:39:32.368Z,0.53
2018-03-25T05:40:32.376Z,0.62
2018-03-25T05:41:47.047Z,0.84
2018-03-25T05:42:32.404Z,0.8
2018-03-25T05:43:32.421Z,0.86
2018-03-25T05:44:32.435Z,0.94
2018-03-25T05:45:32.185Z,1.05
2018-03-25T05:46:32.231Z,1.08
2018-03-25T05:47:32.470Z,1.14
2018-03-25T05:48:32.498Z,1.16
2018-03-25T05:49:47.157Z,1.23
2018-03-25T05:50:32.259Z,1.29
2018-03-25T05:51:32.528Z,1.33
2018-03-25T05:52:32.584Z,1.34
2018-03-25T05:53:32.556Z,1.41
2018-03-25T05:54:32.576Z,1.47
2018-03-25T05:55:47.247Z,1.54
2018-03-25T05:56:47.260Z,1.58
2018-03-25T05:57:32.358Z,1.76
2018-03-25T05:58:32.627Z,1.69
2018-03-25T05:59:32.390Z,1.63
2018-03-25T06:00:32.660Z,1.72
2018-03-25T06:02:32.432Z,1.95
2018-03-25T06:03:32.710Z,2.05
2018-03-25T06:06:32.753Z,2.31
2018-03-25T06:07:32.768Z,2.49
2018-03-25T06:08:32.529Z,2.56
2018-03-25T06:09:32.802Z,2.66
2018-03-25T06:10:32.823Z,2.74
2018-03-25T06:11:32.834Z,2.69
2018-03-25T06:12:32.849Z,2.74
2018-03-25T06:13:32.871Z,2.92
2018-03-25T06:14:32.644Z,3.18
2018-03-25T06:15:32.904Z,3.17
2018-03-25T06:16:32.919Z,3.31
2018-03-25T06:17:32.937Z,3.57
2018-03-25T06:18:32.955Z,3.51
2018-03-25T06:20:47.392Z,3.72
2018-03-25T06:22:33.030Z,3.91
2018-03-25T06:23:33.114Z,3.91
2018-03-25T06:24:33.069Z,4.06
2018-03-25T06:25:33.089Z,4.05
2018-03-25T06:26:33.113Z,4.24
2018-03-25T06:27:33.141Z,4.34
2018-03-25T06:28:33.162Z,4.54
2018-03-25T06:29:47.825Z,4.66
2018-03-25T06:30:33.189Z,4.72
2018-03-25T06:31:33.208Z,4.8
2018-03-25T06:32:33.228Z,4.82
2018-03-25T06:33:33.259Z,4.8
2018-03-25T06:34:33.012Z,4.91
2018-03-25T06:35:33.299Z,5.1
2018-03-25T06:36:33.312Z,5.15
2018-03-25T06:37:33.335Z,5.36
2018-03-25T06:38:33.115Z,5.48
2018-03-25T06:39:48.043Z,5.65
2018-03-25T06:40:33.394Z,5.71
2018-03-25T06:41:33.421Z,5.82
2018-03-25T06:42:33.187Z,5.83
2018-03-25T06:43:48.126Z,5.99
2018-03-25T06:44:33.487Z,6.01
2018-03-25T06:45:32.989Z,6.01
2018-03-25T06:46:33.536Z,6.04
2018-03-25T06:47:33.556Z,6.17
2018-03-25T06:48:33.652Z,6.33
2018-03-25T06:49:33.600Z,6.3
2018-03-25T06:50:33.630Z,6.17
2018-03-25T06:51:33.645Z,6.44
2018-03-25T06:52:48.330Z,6.37
2018-03-25T06:53:33.692Z,6.27
2018-03-25T06:54:33.456Z,6.34
2018-03-25T06:55:33.745Z,6.38
2018-03-25T06:56:33.505Z,6.59
2018-03-25T06:57:33.787Z,6.55
2018-03-25T06:58:33.810Z,6.67
2018-03-25T06:59:33.574Z,6.79
2018-03-25T07:00:33.859Z,6.84
2018-03-25T07:02:33.650Z,6.94
2018-03-25T07:03:33.934Z,7.09
2018-03-25T07:04:33.707Z,6.91
2018-03-25T07:05:33.716Z,6.94
2018-03-25T07:06:34.000Z,7.02
2018-03-25T07:07:34.023Z,7.24
2018-03-25T07:08:48.450Z,7.28
2018-03-25T07:09:34.074Z,7.42
2018-03-25T07:10:34.096Z,7.4
2018-03-25T07:11:34.122Z,7.27
2018-03-25T07:12:34.151Z,7.24
2018-03-25T07:13:33.907Z,7.23
2018-03-25T07:14:33.985Z,7.13
2018-03-25T07:15:34.215Z,7.21
2018-03-25T07:16:48.901Z,7.43
2018-03-25T07:17:34.267Z,7.58
2018-03-25T07:18:34.031Z,7.8
2018-03-25T07:19:49.020Z,7.83
2018-03-25T07:20:34.337Z,7.98
2018-03-25T07:21:34.215Z,8.19
2018-03-25T07:22:34.209Z,8.04
2018-03-25T07:23:34.414Z,8.07
2018-03-25T07:25:34.200Z,7.97
2018-03-25T07:27:34.518Z,8
2018-03-25T07:28:34.283Z,7.9
2018-03-25T07:29:34.560Z,7.92
2018-03-25T07:30:34.327Z,8.07
2018-03-25T07:31:34.608Z,8.04
2018-03-25T07:32:34.636Z,8.07
2018-03-25T07:34:34.685Z,8.38
2018-03-25T07:35:49.367Z,8.44
2018-03-25T07:36:34.474Z,8.53
2018-03-25T07:38:34.788Z,8.84
2018-03-25T07:40:49.234Z,8.68
2018-03-25T07:41:34.601Z,8.48
2018-03-25T07:44:34.930Z,8.76
2018-03-25T07:45:35.092Z,8.71
2018-03-25T07:46:34.984Z,8.87
2018-03-25T07:47:35.009Z,8.99
2018-03-25T07:48:49.697Z,9.11
2018-03-25T07:49:49.719Z,9.18
2018-03-25T07:50:34.825Z,9.18
2018-03-25T07:51:35.111Z,9.15
2018-03-25T07:52:35.131Z,9.1
2018-03-25T07:53:35.157Z,9.17
2018-03-25T07:54:35.182Z,9.24
2018-03-25T07:56:35.236Z,9.38
2018-03-25T07:57:35.256Z,9.32
2018-03-25T07:58:35.282Z,9.56
2018-03-25T07:59:35.316Z,9.43
2018-03-25T08:00:35.335Z,9.53
2018-03-25T08:01:35.356Z,9.46
2018-03-25T08:02:35.391Z,9.48
2018-03-25T08:03:35.407Z,9.66
2018-03-25T08:04:35.176Z,9.93
2018-03-25T08:05:35.458Z,10.05
2018-03-25T08:06:35.483Z,10.14
2018-03-25T08:07:35.506Z,10.33
2018-03-25T08:08:35.012Z,10.45
2018-03-25T08:09:35.561Z,10.52
2018-03-25T08:10:35.323Z,10.7
2018-03-25T08:11:35.612Z,10.82
2018-03-25T08:12:35.371Z,10.86
2018-03-25T08:13:35.661Z,10.71
2018-03-25T08:14:35.679Z,10.88
2018-03-25T08:15:35.705Z,10.99
2018-03-25T08:16:35.731Z,11.25
2018-03-25T08:17:35.763Z,11.21
2018-03-25T08:18:35.785Z,11.35
2018-03-25T08:19:35.823Z,11.43
2018-03-25T08:20:50.489Z,11.57
2018-03-25T08:21:35.938Z,11.37
2018-03-25T08:22:35.630Z,11.46
2018-03-25T08:23:35.912Z,11.49
2018-03-25T08:24:35.671Z,11.47
2018-03-25T08:25:35.955Z,11.44
2018-03-25T08:26:35.982Z,11.42
2018-03-25T08:28:36.031Z,11.37
2018-03-25T08:30:36.080Z,11.03
2018-03-25T08:31:36.106Z,10.71
2018-03-25T08:32:35.871Z,10.63
2018-03-25T08:33:36.163Z,10.51
2018-03-25T08:34:36.190Z,10.33
2018-03-25T08:35:36.206Z,10.73
2018-03-25T08:36:36.233Z,10.99
2018-03-25T08:37:35.995Z,11.25
2018-03-25T08:38:36.280Z,11.4
2018-03-25T08:39:36.305Z,11.43
2018-03-25T08:40:36.373Z,11.67
2018-03-25T08:41:36.356Z,11.52
2018-03-25T08:42:36.123Z,11.76
2018-03-25T08:43:51.069Z,11.94
2018-03-25T08:44:36.428Z,11.73
2018-03-25T08:45:36.457Z,11.78
2018-03-25T08:46:36.538Z,11.94
2018-03-25T08:47:36.509Z,11.83
2018-03-25T08:48:36.531Z,12.02
2018-03-25T08:49:36.559Z,12.28
2018-03-25T08:50:51.241Z,12.42
2018-03-25T08:51:36.600Z,12.46
2018-03-25T08:52:36.628Z,12.54
2018-03-25T08:53:36.392Z,12.53
2018-03-25T08:54:36.679Z,12.49
2018-03-25T08:55:36.770Z,12.52
2018-03-25T08:56:36.470Z,12.62
2018-03-25T08:57:36.497Z,12.57
2018-03-25T08:58:36.788Z,12.67
2018-03-25T08:59:51.470Z,12.62
2018-03-25T09:01:36.604Z,12.24
2018-03-25T09:02:36.880Z,12.32
2018-03-25T09:03:36.901Z,12.14
2018-03-25T09:04:36.934Z,12.37
2018-03-25T09:05:36.952Z,12.49
2018-03-25T09:06:51.639Z,12.52
2018-03-25T09:07:37.004Z,12.68
2018-03-25T09:08:37.027Z,12.56
2018-03-25T09:09:51.454Z,12.46
2018-03-25T09:10:37.075Z,12.02
2018-03-25T09:11:36.844Z,12.05
2018-03-25T09:12:36.867Z,12.17
2018-03-25T09:13:36.635Z,12.52
2018-03-25T09:14:37.182Z,12.54
2018-03-25T09:15:51.862Z,12.01
2018-03-25T09:16:37.230Z,11.78
2018-03-25T09:17:37.251Z,11.96
2018-03-25T09:18:36.759Z,11.76
2018-03-25T09:19:37.043Z,11.64
2018-03-25T09:20:37.325Z,11.79
2018-03-25T09:21:37.352Z,12.24
2018-03-25T09:22:52.036Z,12.47
2018-03-25T09:23:37.401Z,12.52
2018-03-25T09:24:37.425Z,12.7
2018-03-25T09:25:37.198Z,12.7
2018-03-25T09:27:37.238Z,12.75
2018-03-25T09:28:37.264Z,12.82
2018-03-25T09:30:52.235Z,13.23
2018-03-25T09:32:37.623Z,13.36
2018-03-25T09:33:37.388Z,13
2018-03-25T09:34:37.688Z,13.19
2018-03-25T09:35:37.439Z,13.22
2018-03-25T09:36:37.723Z,13.42
2018-03-25T09:37:37.487Z,13.7
2018-03-25T09:38:37.772Z,13.67
2018-03-25T09:39:37.800Z,13.59
2018-03-25T09:40:52.222Z,13.51
2018-03-25T09:41:37.845Z,13.62
2018-03-25T09:42:37.872Z,13.85
2018-03-25T09:44:37.663Z,13.69
2018-03-25T09:45:37.944Z,13.63
2018-03-25T09:46:37.979Z,13.89
2018-03-25T09:47:38.004Z,13.91
2018-03-25T09:48:38.029Z,13.99
2018-03-25T09:49:38.055Z,14.04
2018-03-25T09:50:52.735Z,14.07
2018-03-25T09:51:38.106Z,13.91
2018-03-25T09:52:38.173Z,13.51
2018-03-25T09:53:37.892Z,13.77
2018-03-25T09:54:37.911Z,13.67
2018-03-25T09:55:38.205Z,13.62
2018-03-25T09:56:38.220Z,13.54
2018-03-25T09:57:38.242Z,13.22
2018-03-25T09:58:38.505Z,13.57
2018-03-25T09:59:38.296Z,13.71
2018-03-25T10:00:38.318Z,13.82
2018-03-25T10:01:38.344Z,13.66
2018-03-25T10:03:38.394Z,13.67
2018-03-25T10:04:38.520Z,13.78
2018-03-25T10:05:38.183Z,13.66
2018-03-25T10:06:38.469Z,13.95
2018-03-25T10:07:38.498Z,13.89
2018-03-25T10:08:38.522Z,13.91
2018-03-25T10:09:38.288Z,13.57
2018-03-25T10:10:38.309Z,13.63
2018-03-25T10:11:38.330Z,13.63
2018-03-25T10:12:53.274Z,13.67
2018-03-25T10:13:38.639Z,13.71
2018-03-25T10:14:38.406Z,13.82
2018-03-25T10:15:38.172Z,13.78
2018-03-25T10:16:38.713Z,13.92
2018-03-25T10:17:38.736Z,13.88
2018-03-25T10:18:53.491Z,13.64
2018-03-25T10:19:38.793Z,13.55
2018-03-25T10:20:38.552Z,13.29
2018-03-25T10:21:38.841Z,12.95
2018-03-25T10:22:38.864Z,12.9
2018-03-25T10:23:38.947Z,12.85
2018-03-25T10:24:38.919Z,12.82
2018-03-25T10:25:38.677Z,12.78
2018-03-25T10:26:53.621Z,12.68
2018-03-25T10:27:39.004Z,12.74
2018-03-25T10:28:39.026Z,12.78
2018-03-25T10:29:39.063Z,12.83
2018-03-25T10:30:38.540Z,12.83
2018-03-25T10:31:39.088Z,12.75
2018-03-25T10:32:39.110Z,12.67
2018-03-25T10:33:38.873Z,12.6
2018-03-25T10:34:53.816Z,12.78
2018-03-25T10:36:39.306Z,12.75
2018-03-25T10:37:38.970Z,12.65
2018-03-25T10:38:39.253Z,12.68
2018-03-25T10:39:39.281Z,12.75
2018-03-25T10:40:39.308Z,12.7
2018-03-25T10:41:39.325Z,12.82
2018-03-25T10:42:39.352Z,12.68
2018-03-25T10:43:39.474Z,12.7
2018-03-25T10:44:39.397Z,12.79
2018-03-25T10:45:39.164Z,12.57
2018-03-25T10:46:39.188Z,12.47
2018-03-25T10:47:39.469Z,12.37
2018-03-25T10:48:39.493Z,12.34
2018-03-25T10:49:39.624Z,12.46
2018-03-25T10:51:39.045Z,12.52
2018-03-25T10:52:39.585Z,12.52
2018-03-25T10:53:39.617Z,12.6
2018-03-25T10:54:39.637Z,12.54
2018-03-25T10:56:39.680Z,12.49
2018-03-25T10:57:39.704Z,12.46
2018-03-25T10:58:54.386Z,12.39
2018-03-25T10:59:39.493Z,12.35
2018-03-25T11:00:39.776Z,12.37
2018-03-25T11:01:39.796Z,12.38
2018-03-25T11:02:39.562Z,12.45
2018-03-25T11:03:39.586Z,12.42
2018-03-25T11:04:39.927Z,12.59
2018-03-25T11:05:54.551Z,12.47
2018-03-25T11:06:39.915Z,12.27
2018-03-25T11:07:39.942Z,12.23
2018-03-25T11:08:39.966Z,12.27
2018-03-25T11:09:39.724Z,12.39
2018-03-25T11:10:40.007Z,12.49
2018-03-25T11:11:40.028Z,12.62
2018-03-25T11:12:40.052Z,12.65
2018-03-25T11:13:40.080Z,12.65
2018-03-25T11:14:39.581Z,12.53
2018-03-25T11:15:40.117Z,12.42
2018-03-25T11:16:40.143Z,12.37
2018-03-25T11:17:40.164Z,12.34
2018-03-25T11:18:40.191Z,12.32
2018-03-25T11:19:40.211Z,12.35
2018-03-25T11:20:40.238Z,12.34
2018-03-25T11:21:40.258Z,12.38
2018-03-25T11:22:40.277Z,12.17
2018-03-25T11:23:40.041Z,12.17
2018-03-25T11:24:40.411Z,12.13
2018-03-25T11:25:40.343Z,12.21
2018-03-25T11:26:40.366Z,12.32
2018-03-25T11:27:40.390Z,12.41
2018-03-25T11:28:40.435Z,12.35
2018-03-25T11:29:55.096Z,12.42
2018-03-25T11:30:40.513Z,12.37
2018-03-25T11:31:40.483Z,12.23
2018-03-25T11:33:40.008Z,12.16
2018-03-25T11:34:40.293Z,12.23
2018-03-25T11:35:40.570Z,12.39
2018-03-25T11:36:40.337Z,12.38
2018-03-25T11:37:55.274Z,12.35
2018-03-25T11:38:40.642Z,12.41
2018-03-25T11:40:40.422Z,12.39
2018-03-25T11:41:40.706Z,12.23
2018-03-25T11:42:40.731Z,12.39
2018-03-25T11:43:40.751Z,12.34
2018-03-25T11:44:40.512Z,12.32
2018-03-25T11:45:40.840Z,12.17
2018-03-25T11:46:40.816Z,12.09
2018-03-25T11:47:40.868Z,12.19
2018-03-25T11:48:40.859Z,12.19
2018-03-25T11:49:40.887Z,12.04
2018-03-25T11:50:40.644Z,11.94
2018-03-25T11:51:40.666Z,11.91
2018-03-25T11:52:40.953Z,11.98
2018-03-25T11:53:55.637Z,12.27
2018-03-25T11:54:40.996Z,12.47
2018-03-25T11:55:40.497Z,12.5
2018-03-25T11:56:41.037Z,12.53
2018-03-25T11:57:41.171Z,12.49
2018-03-25T11:58:41.081Z,12.56
2018-03-25T11:59:41.106Z,12.6
2018-03-25T12:00:41.136Z,12.65
2018-03-25T12:01:41.164Z,12.64
2018-03-25T12:02:40.912Z,12.47
2018-03-25T12:03:40.933Z,12.29
2018-03-25T12:04:40.956Z,12.32
2018-03-25T12:05:41.246Z,12.35
2018-03-25T12:06:41.267Z,12.45
2018-03-25T12:07:41.020Z,12.5
2018-03-25T12:08:41.043Z,12.45
2018-03-25T12:11:41.369Z,12.32
2018-03-25T12:12:41.133Z,12.34
2018-03-25T12:13:41.155Z,12.23
2018-03-25T12:14:41.184Z,12.27
2018-03-25T12:15:41.198Z,12.23
2018-03-25T12:16:41.480Z,12.12
2018-03-25T12:17:41.242Z,12.16
2018-03-25T12:18:41.270Z,12.28
2018-03-25T12:19:41.550Z,12.12
2018-03-25T12:20:41.306Z,12.21
2018-03-25T12:21:41.071Z,12.21
2018-03-25T12:23:41.634Z,12.05
2018-03-25T12:24:41.661Z,12.04
2018-03-25T12:26:41.180Z,11.83
2018-03-25T12:27:41.721Z,12.02
2018-03-25T12:29:41.246Z,12.34
2018-03-25T12:31:41.813Z,12.53
2018-03-25T12:32:41.311Z,12.64
2018-03-25T12:33:41.333Z,12.68
2018-03-25T12:34:41.357Z,12.64
2018-03-25T12:35:41.895Z,12.67
2018-03-25T12:36:41.659Z,12.65
2018-03-25T12:37:41.680Z,12.68
2018-03-25T12:38:42.033Z,12.64
2018-03-25T12:39:41.986Z,12.65
2018-03-25T12:40:56.665Z,12.68
2018-03-25T12:41:42.031Z,12.67
2018-03-25T12:42:41.790Z,12.82
2018-03-25T12:43:42.081Z,12.79
2018-03-25T12:44:42.138Z,12.82
2018-03-25T12:45:42.152Z,12.93
2018-03-25T12:46:42.141Z,12.97
2018-03-25T12:47:41.647Z,12.92
2018-03-25T12:48:41.922Z,12.79
2018-03-25T12:49:42.201Z,12.85
2018-03-25T12:50:42.223Z,12.87
2018-03-25T12:51:41.988Z,13.03
2018-03-25T12:52:42.271Z,13.05
2018-03-25T12:53:42.035Z,13.07
2018-03-25T12:54:42.054Z,12.97
2018-03-25T12:55:42.333Z,13.08
2018-03-25T12:56:42.357Z,13.03
2018-03-25T12:57:42.126Z,13.03
2018-03-25T12:58:42.407Z,13.04
2018-03-25T12:59:42.434Z,12.95
2018-03-25T13:00:42.451Z,12.92
2018-03-25T13:01:42.556Z,12.89
2018-03-25T13:02:42.230Z,12.96
2018-03-25T13:03:42.515Z,12.93
2018-03-25T13:04:42.279Z,12.92
2018-03-25T13:05:42.295Z,12.87
2018-03-25T13:06:42.627Z,12.87
2018-03-25T13:07:42.617Z,12.95
2018-03-25T13:08:42.619Z,12.92
2018-03-25T13:09:42.384Z,12.85
2018-03-25T13:10:42.408Z,12.78
2018-03-25T13:11:42.432Z,12.68
2018-03-25T13:12:57.374Z,12.65
2018-03-25T13:13:42.837Z,12.77
2018-03-25T13:14:42.495Z,12.7
2018-03-25T13:15:42.775Z,12.79
2018-03-25T13:17:42.822Z,12.9
2018-03-25T13:18:42.581Z,12.79
2018-03-25T13:19:42.865Z,12.85
2018-03-25T13:20:57.543Z,12.87
2018-03-25T13:21:42.918Z,12.86
2018-03-25T13:22:42.932Z,12.92
2018-03-25T13:23:42.952Z,12.97
2018-03-25T13:24:42.974Z,12.96
2018-03-25T13:25:42.737Z,12.89
2018-03-25T13:26:43.020Z,12.9
2018-03-25T13:27:43.040Z,12.87
2018-03-25T13:28:57.841Z,12.74
2018-03-25T13:29:43.082Z,12.7
2018-03-25T13:30:43.102Z,12.7
2018-03-25T13:31:43.126Z,12.72
2018-03-25T13:32:43.152Z,12.77
2018-03-25T13:33:43.221Z,12.78
2018-03-25T13:34:43.351Z,12.75
2018-03-25T13:35:42.957Z,12.78
2018-03-25T13:36:42.977Z,12.83
2018-03-25T13:37:42.997Z,12.85
2018-03-25T13:38:43.277Z,12.79
2018-03-25T13:39:43.047Z,12.79
2018-03-25T13:40:43.323Z,12.65
2018-03-25T13:41:43.343Z,12.75
2018-03-25T13:42:42.848Z,12.82
2018-03-25T13:43:43.388Z,12.89
2018-03-25T13:45:43.173Z,13.1
2018-03-25T13:46:43.460Z,13.12
2018-03-25T13:47:43.218Z,13.17
2018-03-25T13:49:43.264Z,13.04
2018-03-25T13:50:43.283Z,12.83
2018-03-25T13:51:43.570Z,12.77
2018-03-25T13:52:43.584Z,12.6
2018-03-25T13:53:43.347Z,12.65
2018-03-25T13:54:43.373Z,12.57
2018-03-25T13:55:58.051Z,12.5
2018-03-25T13:56:43.414Z,12.57